Time;durP1;ratioP1;P1;durP2;ratioP2;P2;SDS_P1;SDS_P2;PMS_P1;PMS_P2;Temp;Humidity;BMP_temperature;BMP_pressure;BME280_temperature;BME280_humidity;BME280_pressure;Samples;Min_cycle;Max_cycle;Signal;HPM_P1;HPM_P2
2022/05/06 00:01:36;;;;;;;27.63;25.23;;;13.50;58.60;;;;;;4995199;28;20498;-86
2022/05/06 00:04:03;;;;;;;27.93;25.50;;;13.50;58.40;;;;;;4995276;28;20511;-87
2022/05/06 00:06:29;;;;;;;28.17;25.43;;;13.40;58.20;;;;;;4995436;28;20507;-87
2022/05/06 00:08:55;;;;;;;26.17;24.00;;;13.50;58.10;;;;;;4995148;28;20427;-85
2022/05/06 00:11:22;;;;;;;26.53;24.40;;;13.50;58.20;;;;;;4995035;28;20268;-87
2022/05/06 00:13:48;;;;;;;26.80;24.80;;;13.50;58.10;;;;;;4994921;28;21010;-85
2022/05/06 00:16:13;;;;;;;26.87;24.77;;;13.50;57.80;;;;;;4994931;28;20405;-86
2022/05/06 00:18:39;;;;;;;26.93;24.87;;;13.50;57.30;;;;;;4994765;28;20443;-86
2022/05/06 00:21:05;;;;;;;34.70;26.10;;;13.50;57.20;;;;;;4994571;28;20653;-86
2022/05/06 00:23:30;;;;;;;28.37;26.27;;;13.60;57.50;;;;;;4996146;28;20193;-86
2022/05/06 00:25:56;;;;;;;32.70;30.10;;;13.60;57.50;;;;;;5010406;28;20673;-86
2022/05/06 00:28:22;;;;;;;28.03;25.57;;;13.50;57.70;;;;;;5010537;28;20184;-86
2022/05/06 00:30:48;;;;;;;28.00;25.53;;;13.50;58.00;;;;;;5011056;28;20421;-86
2022/05/06 00:33:13;;;;;;;28.20;25.90;;;13.50;57.70;;;;;;5011070;28;20201;-86
2022/05/06 00:35:43;;;;;;;28.63;25.33;;;13.60;57.00;;;;;;5010372;28;20169;-86
2022/05/06 00:38:08;;;;;;;34.50;31.70;;;13.60;57.00;;;;;;5010396;28;20304;-86
2022/05/06 00:40:34;;;;;;;26.67;24.77;;;13.60;57.50;;;;;;5010362;28;20552;-86
2022/05/06 00:43:00;;;;;;;28.30;25.83;;;13.50;57.60;;;;;;5010829;28;20276;-86
2022/05/06 00:45:35;;;;;;;26.60;24.70;;;13.50;58.70;;;;;;5010295;28;20181;-86
2022/05/06 00:48:01;;;;;;;29.10;26.40;;;13.50;58.50;;;;;;5010768;28;20181;-80
2022/05/06 00:50:27;;;;;;;28.23;26.03;;;13.50;58.20;;;;;;5010564;28;20478;-86
2022/05/06 00:52:57;;;;;;;28.97;26.37;;;13.50;58.80;;;;;;5009990;28;20232;-81
2022/05/06 00:55:24;;;;;;;30.50;27.80;;;13.50;58.70;;;;;;5010171;28;20236;-81
2022/05/06 00:57:50;;;;;;;29.07;26.67;;;13.60;58.10;;;;;;5010825;28;20422;-85
2022/05/06 01:00:19;;;;;;;27.83;25.53;;;13.50;58.00;;;;;;5011036;28;20849;-85
2022/05/06 01:02:48;;;;;;;28.40;26.07;;;13.60;58.40;;;;;;5010649;28;20184;-85
2022/05/06 01:05:15;;;;;;;28.87;26.67;;;13.50;58.20;;;;;;5010663;28;20844;-86
2022/05/06 01:07:43;;;;;;;28.20;25.63;;;13.50;57.70;;;;;;5010676;28;20420;-85
2022/05/06 01:10:09;;;;;;;27.53;25.33;;;13.50;57.90;;;;;;5009431;28;20459;-86
2022/05/06 01:12:34;;;;;;;27.80;25.33;;;13.50;58.30;;;;;;5010446;28;20496;-86
2022/05/06 01:15:00;;;;;;;35.20;32.77;;;13.40;58.40;;;;;;5010395;28;20436;-86
2022/05/06 01:17:26;;;;;;;27.50;25.47;;;13.50;58.50;;;;;;5010367;28;20606;-86
2022/05/06 01:19:51;;;;;;;27.30;24.87;;;13.40;58.10;;;;;;5010479;28;20521;-85
2022/05/06 01:22:20;;;;;;;27.80;25.60;;;13.50;57.90;;;;;;5010249;28;20205;-86
2022/05/06 01:24:45;;;;;;;28.50;26.27;;;13.50;57.40;;;;;;5009366;28;20251;-86
2022/05/06 01:27:25;;;;;;;28.13;25.83;;;13.60;57.40;;;;;;5009566;28;20518;-86
2022/05/06 01:29:52;;;;;;;27.47;25.37;;;13.50;57.60;;;;;;5009233;28;20184;-85
2022/05/06 01:32:18;;;;;;;31.90;29.60;;;13.50;57.90;;;;;;5009173;28;20990;-86
2022/05/06 01:34:45;;;;;;;29.20;26.67;;;13.50;57.70;;;;;;5009511;28;20894;-86
2022/05/06 01:37:13;;;;;;;28.57;25.93;;;13.50;58.00;;;;;;5009786;28;20889;-86
2022/05/06 01:39:40;;;;;;;30.37;27.33;;;13.40;57.70;;;;;;5009252;28;20416;-86
2022/05/06 01:42:09;;;;;;;34.70;31.87;;;13.50;57.70;;;;;;5008848;28;21125;-86
2022/05/06 01:44:40;;;;;;;26.87;24.90;;;13.40;57.70;;;;;;5008781;28;20931;-85
2022/05/06 01:47:14;;;;;;;28.23;26.23;;;13.40;58.20;;;;;;5009249;28;20919;-85
2022/05/06 01:49:42;;;;;;;26.67;24.03;;;13.40;58.30;;;;;;5009722;28;20416;-85
2022/05/06 01:52:09;;;;;;;28.20;25.90;;;13.50;57.80;;;;;;5009331;28;20416;-84
2022/05/06 01:54:35;;;;;;;28.20;25.90;;;13.50;57.80;;;;;;5008809;28;20421;-85
2022/05/06 01:57:01;;;;;;;28.80;26.43;;;13.40;58.40;;;;;;5009154;28;20413;-85
2022/05/06 01:59:26;;;;;;;28.80;26.40;;;13.40;58.20;;;;;;5009179;28;20568;-85
2022/05/06 02:01:52;;;;;;;27.20;24.73;;;13.40;58.30;;;;;;5008544;28;20416;-85
2022/05/06 02:07:02;;;;;;;28.07;25.60;;;13.40;58.60;;;;;;5010810;28;20188;-85
2022/05/06 02:09:28;;;;;;;27.70;25.70;;;13.30;58.60;;;;;;5008832;28;20780;-85
2022/05/06 02:11:53;;;;;;;28.73;26.23;;;13.40;58.50;;;;;;5008644;28;20204;-86
2022/05/06 02:14:19;;;;;;;27.10;25.20;;;13.30;58.70;;;;;;5008420;28;20581;-86
2022/05/06 02:16:45;;;;;;;31.90;29.40;;;13.40;58.30;;;;;;5006911;28;20819;-86
2022/05/06 02:19:11;;;;;;;30.00;27.43;;;13.50;58.00;;;;;;5008657;28;20177;-86
2022/05/06 02:21:36;;;;;;;34.63;31.80;;;13.50;57.10;;;;;;5011630;28;20174;-86
2022/05/06 02:25:30;;;;;;;26.50;24.70;;;13.40;58.00;;;;;;5108908;27;20540;-86
2022/05/06 02:27:55;;;;;;;28.33;26.10;;;13.30;58.70;;;;;;5107386;28;20442;-85
2022/05/06 02:33:14;;;;;;;26.90;24.60;;;13.30;58.30;;;;;;5109357;28;20196;-85
2022/05/06 02:35:43;;;;;;;26.10;24.20;;;13.40;57.40;;;;;;5107475;28;20415;-85
2022/05/06 02:38:11;;;;;;;26.67;24.57;;;13.40;58.00;;;;;;5107804;28;20412;-85
2022/05/06 02:40:37;;;;;;;27.47;25.37;;;13.40;57.70;;;;;;5107870;28;20404;-85
2022/05/06 02:43:05;;;;;;;28.57;26.30;;;13.30;57.90;;;;;;5107416;28;20752;-86
2022/05/06 02:45:32;;;;;;;27.83;25.37;;;13.30;58.00;;;;;;5107051;28;20469;-86
2022/05/06 02:47:57;;;;;;;27.93;25.67;;;13.30;58.40;;;;;;5107647;28;20498;-86
2022/05/06 02:50:24;;;;;;;26.40;24.43;;;13.20;58.70;;;;;;5107988;28;20495;-85
2022/05/06 02:52:50;;;;;;;28.63;25.80;;;13.20;58.80;;;;;;5108008;28;20170;-85
2022/05/06 02:55:16;;;;;;;27.27;24.90;;;13.30;58.30;;;;;;5100408;28;20439;-80
2022/05/06 02:57:42;;;;;;;25.53;23.73;;;13.30;58.20;;;;;;5114376;28;20436;-80
2022/05/06 03:00:08;;;;;;;26.97;24.97;;;13.30;58.20;;;;;;5105306;28;20585;-80
2022/05/06 03:02:34;;;;;;;28.10;25.30;;;13.20;58.50;;;;;;5106164;28;20819;-80
2022/05/06 03:05:00;;;;;;;28.20;25.93;;;13.30;58.30;;;;;;5102684;28;20460;-81
2022/05/06 03:07:25;;;;;;;27.63;25.20;;;13.40;58.00;;;;;;5094860;28;20227;-81
2022/05/06 03:09:54;;;;;;;27.07;24.80;;;13.20;58.20;;;;;;5091942;28;20167;-81
2022/05/06 03:12:26;;;;;;;28.50;26.30;;;13.30;58.50;;;;;;5097390;28;20175;-81
2022/05/06 03:14:58;;;;;;;29.30;26.60;;;13.20;58.70;;;;;;5101493;28;20772;-83
2022/05/06 03:17:45;;;;;;;28.23;26.13;;;13.20;58.80;;;;;;5110363;28;20415;-84
2022/05/06 03:20:11;;;;;;;27.90;26.00;;;13.10;58.40;;;;;;5121226;28;20444;-85
2022/05/06 03:22:42;;;;;;;26.33;24.50;;;13.20;58.90;;;;;;5129528;28;20756;-85
2022/05/06 03:25:10;;;;;;;26.57;24.77;;;13.10;59.60;;;;;;5121259;28;20194;-85
2022/05/06 03:30:20;;;;;;;28.50;25.97;;;13.10;59.50;;;;;;5097720;28;20415;-85
2022/05/06 03:32:46;;;;;;;26.33;24.47;;;13.20;59.00;;;;;;5096247;28;20940;-86
2022/05/06 03:35:12;;;;;;;27.97;25.83;;;13.20;59.00;;;;;;5098093;28;20174;-86
2022/05/06 03:37:38;;;;;;;27.53;25.53;;;13.20;59.20;;;;;;5077696;28;20432;-86
2022/05/06 03:40:05;;;;;;;29.70;27.45;;;13.30;58.50;;;;;;5076662;28;20454;-85
2022/05/06 03:42:31;;;;;;;28.90;26.70;;;13.20;58.80;;;;;;5083235;28;20267;-86
2022/05/06 03:45:21;;;;;;;29.00;26.87;;;13.10;59.90;;;;;;5079468;28;20484;-85
2022/05/06 03:47:47;;;;;;;27.40;25.50;;;13.10;59.40;;;;;;5086218;28;20174;-85
2022/05/06 03:52:56;;;;;;;28.90;26.03;;;13.10;59.40;;;;;;5091140;28;20208;-85
2022/05/06 03:55:23;;;;;;;26.27;24.30;;;13.20;58.80;;;;;;5093956;28;20416;-84
2022/05/06 03:57:48;;;;;;;25.77;24.27;;;13.10;59.00;;;;;;5085337;28;20520;-85
2022/05/06 04:00:15;;;;;;;25.13;23.60;;;13.10;59.30;;;;;;5091082;28;20415;-85
2022/05/06 04:02:42;;;;;;;27.53;25.50;;;13.10;60.10;;;;;;5115414;28;20174;-87
2022/05/06 04:05:08;;;;;;;25.30;23.43;;;13.10;60.10;;;;;;5115506;28;20475;-85
2022/05/06 04:07:34;;;;;;;27.10;25.03;;;13.20;59.90;;;;;;5114782;28;20404;-85
2022/05/06 04:10:00;;;;;;;28.53;25.73;;;13.20;60.00;;;;;;5114448;28;20426;-84
2022/05/06 04:12:26;;;;;;;25.90;24.00;;;13.10;60.90;;;;;;5115694;28;20165;-86
2022/05/06 04:14:51;;;;;;;27.37;25.20;;;13.10;61.50;;;;;;5114203;28;20426;-86
2022/05/06 04:17:17;;;;;;;27.60;25.60;;;13.00;62.00;;;;;;5114812;28;20206;-90
2022/05/06 04:25:14;;;;;;;31.10;29.00;;;13.00;61.70;;;;;;5115797;28;21004;-84
2022/05/06 04:27:40;;;;;;;26.23;24.23;;;13.00;62.20;;;;;;5114486;28;20417;-88
2022/05/06 04:30:06;;;;;;;25.20;23.40;;;13.00;61.90;;;;;;5114326;28;20404;-85
2022/05/06 04:32:32;;;;;;;26.40;24.30;;;12.90;62.40;;;;;;5114106;28;20414;-83
2022/05/06 04:34:57;;;;;;;32.20;29.87;;;13.00;62.60;;;;;;5114057;28;20507;-85
2022/05/06 04:37:25;;;;;;;25.40;23.70;;;13.00;62.30;;;;;;5114666;28;20209;-85
2022/05/06 04:39:50;;;;;;;25.07;23.07;;;13.00;62.60;;;;;;5114391;28;20203;-85
2022/05/06 04:42:17;;;;;;;25.53;23.80;;;13.00;63.00;;;;;;5115689;28;20443;-85
2022/05/06 04:44:43;;;;;;;25.50;23.57;;;13.10;62.90;;;;;;5113066;28;20212;-86
2022/05/06 04:47:09;;;;;;;31.23;29.20;;;13.00;63.40;;;;;;5113187;28;20404;-84
2022/05/06 04:49:35;;;;;;;22.60;21.23;;;13.00;63.10;;;;;;5114254;28;20181;-85
2022/05/06 04:52:00;;;;;;;24.93;23.17;;;12.90;63.60;;;;;;5114548;28;20174;-88
2022/05/06 04:54:26;;;;;;;23.60;21.37;;;12.90;63.80;;;;;;5113734;28;20708;-89
2022/05/06 04:56:53;;;;;;;25.13;22.97;;;12.80;63.80;;;;;;5114350;28;20533;-85
2022/05/06 04:59:22;;;;;;;24.07;22.17;;;12.90;63.80;;;;;;5113617;28;20430;-86
2022/05/06 05:01:48;;;;;;;23.67;21.07;;;12.90;63.80;;;;;;5114093;28;20420;-81
2022/05/06 05:04:13;;;;;;;22.37;20.73;;;12.90;64.40;;;;;;5100115;28;20872;-81
2022/05/06 05:06:39;;;;;;;27.80;25.90;;;12.90;64.70;;;;;;5090213;28;20431;-81
2022/05/06 05:09:05;;;;;;;24.33;22.23;;;12.80;65.10;;;;;;5091869;28;20613;-81
2022/05/06 05:11:33;;;;;;;23.47;21.90;;;12.80;65.00;;;;;;5068952;28;20532;-81
2022/05/06 05:14:00;;;;;;;24.30;22.10;;;12.80;64.60;;;;;;5071076;28;20269;-81
2022/05/06 05:16:26;;;;;;;23.57;21.70;;;12.80;65.30;;;;;;5071643;28;20983;-80
2022/05/06 05:18:53;;;;;;;24.93;22.87;;;12.80;65.00;;;;;;5071425;28;20429;-81
2022/05/06 05:21:19;;;;;;;27.97;25.97;;;12.80;64.90;;;;;;5071127;28;20975;-81
2022/05/06 05:23:45;;;;;;;24.33;22.17;;;12.80;65.10;;;;;;5071199;28;20473;-81
2022/05/06 05:26:11;;;;;;;22.90;21.30;;;12.80;65.20;;;;;;5070975;28;20206;-81
2022/05/06 05:28:37;;;;;;;21.67;20.20;;;12.80;64.90;;;;;;5070630;28;20504;-81
2022/05/06 05:31:03;;;;;;;21.63;19.80;;;12.90;65.20;;;;;;5070795;28;20510;-81
2022/05/06 05:33:29;;;;;;;24.00;22.20;;;12.90;65.40;;;;;;5070684;28;20432;-81
2022/05/06 05:35:54;;;;;;;22.47;20.77;;;12.70;66.30;;;;;;5070985;28;20418;-81
2022/05/06 05:38:20;;;;;;;23.00;21.30;;;12.80;66.20;;;;;;5072764;28;20179;-85
2022/05/06 05:40:46;;;;;;;21.93;20.40;;;12.70;67.50;;;;;;5072068;28;20171;-86
2022/05/06 05:48:41;;;;;;;26.25;24.45;;;12.80;66.10;;;;;;5067156;28;20785;-85
2022/05/06 05:51:07;;;;;;;25.17;23.47;;;12.70;66.70;;;;;;5063301;28;20176;-81
2022/05/06 05:53:33;;;;;;;23.43;21.73;;;12.80;66.60;;;;;;5059699;28;20171;-88
2022/05/06 05:55:59;;;;;;;23.73;21.67;;;12.90;66.40;;;;;;5058745;28;20422;-81
2022/05/06 05:58:25;;;;;;;22.67;20.77;;;12.80;66.30;;;;;;5054881;28;20833;-82
2022/05/06 06:00:51;;;;;;;23.80;21.90;;;12.70;67.20;;;;;;5050486;28;20414;-81
2022/05/06 06:03:16;;;;;;;22.03;20.00;;;12.70;68.30;;;;;;5063295;28;20218;-82
2022/05/06 06:05:44;;;;;;;23.27;21.40;;;12.60;68.30;;;;;;5066246;28;20469;-81
2022/05/06 06:08:09;;;;;;;22.43;20.83;;;12.60;68.60;;;;;;5050173;28;20172;-80
2022/05/06 06:10:35;;;;;;;22.37;20.67;;;12.60;69.10;;;;;;5049399;28;20453;-80
2022/05/06 06:13:04;;;;;;;25.00;23.10;;;12.70;69.20;;;;;;5049319;28;20168;-80
2022/05/06 06:15:30;;;;;;;23.00;21.30;;;12.80;68.20;;;;;;5052487;28;20523;-80
2022/05/06 06:17:55;;;;;;;22.70;21.10;;;12.90;66.70;;;;;;5070602;28;20490;-78
2022/05/06 06:20:23;;;;;;;23.07;21.17;;;12.80;66.80;;;;;;5070167;28;20493;-79
2022/05/06 06:22:49;;;;;;;21.73;20.13;;;12.80;67.00;;;;;;5070241;28;20179;-79
2022/05/06 06:25:15;;;;;;;22.87;21.13;;;12.90;66.60;;;;;;5070044;28;20464;-79
2022/05/06 06:27:40;;;;;;;23.00;21.23;;;12.80;66.70;;;;;;5070476;28;20409;-79
2022/05/06 06:30:07;;;;;;;22.23;20.00;;;12.80;65.60;;;;;;5071389;28;20603;-80
2022/05/06 06:32:33;;;;;;;22.37;20.57;;;12.80;67.00;;;;;;5065774;28;20171;-80
2022/05/06 06:34:59;;;;;;;21.17;19.60;;;12.90;67.30;;;;;;5053365;28;20449;-79
2022/05/06 06:37:25;;;;;;;21.77;20.10;;;12.80;67.20;;;;;;5061291;28;20183;-79
2022/05/06 06:39:51;;;;;;;25.47;23.67;;;12.80;66.30;;;;;;5070188;28;20613;-79
2022/05/06 06:42:17;;;;;;;26.20;24.10;;;12.80;66.00;;;;;;5069997;28;20417;-79
2022/05/06 06:44:43;;;;;;;26.10;24.17;;;12.80;66.40;;;;;;5069898;28;20242;-79
2022/05/06 06:47:09;;;;;;;25.40;23.60;;;12.80;66.20;;;;;;5070339;28;20171;-78
2022/05/06 06:49:36;;;;;;;23.70;22.10;;;12.80;66.60;;;;;;5069538;28;20190;-80
2022/05/06 06:52:05;;;;;;;23.63;21.83;;;12.80;66.20;;;;;;5070082;28;20648;-79
2022/05/06 06:54:31;;;;;;;21.57;19.97;;;12.80;65.70;;;;;;5069785;28;20417;-80
2022/05/06 06:56:56;;;;;;;21.30;19.60;;;12.80;66.00;;;;;;5069794;28;20769;-79
2022/05/06 06:59:22;;;;;;;21.50;19.80;;;12.90;65.80;;;;;;5069949;28;20304;-79
2022/05/06 07:01:51;;;;;;;21.60;19.50;;;12.90;65.40;;;;;;5072163;28;20179;-81
2022/05/06 07:04:17;;;;;;;21.60;19.80;;;12.90;66.10;;;;;;5069334;28;20668;-79
2022/05/06 07:12:16;;;;;;;20.10;18.50;;;12.80;64.80;;;;;;5075455;28;20421;-79
2022/05/06 07:14:42;;;;;;;21.67;19.93;;;12.80;66.50;;;;;;5074195;28;20421;-79
2022/05/06 07:17:08;;;;;;;20.30;18.70;;;12.90;65.90;;;;;;5074139;28;20776;-79
2022/05/06 07:19:34;;;;;;;21.53;19.63;;;12.80;66.30;;;;;;5073050;28;20658;-79
2022/05/06 07:21:59;;;;;;;21.20;19.60;;;12.90;65.30;;;;;;5073258;28;20192;-79
2022/05/06 07:24:25;;;;;;;21.00;19.30;;;13.00;64.00;;;;;;5072916;28;20475;-78
2022/05/06 07:26:52;;;;;;;21.00;19.20;;;13.00;63.90;;;;;;5073089;28;20207;-78
2022/05/06 07:29:19;;;;;;;25.47;23.70;;;13.00;63.90;;;;;;5073285;28;20449;-78
2022/05/06 07:31:45;;;;;;;22.47;19.60;;;13.00;65.00;;;;;;5073252;28;20471;-79
2022/05/06 07:34:11;;;;;;;21.87;20.37;;;13.00;63.90;;;;;;5072831;28;20968;-79
2022/05/06 07:36:42;;;;;;;26.63;24.83;;;13.10;63.90;;;;;;5073479;28;20222;-79
2022/05/06 07:39:12;;;;;;;22.20;20.40;;;13.10;62.20;;;;;;5073464;28;20409;-79
2022/05/06 07:41:39;;;;;;;21.37;19.87;;;13.20;60.20;;;;;;5073401;28;20417;-80
2022/05/06 07:44:06;;;;;;;21.87;20.20;;;13.20;59.80;;;;;;5072889;28;20461;-80
2022/05/06 07:46:32;;;;;;;22.27;20.60;;;13.20;60.00;;;;;;5073252;28;20405;-78
2022/05/06 07:48:58;;;;;;;21.50;19.67;;;13.20;59.80;;;;;;5073428;28;20420;-79
2022/05/06 07:51:24;;;;;;;22.10;20.70;;;13.20;60.00;;;;;;5073066;28;20410;-78
2022/05/06 07:53:52;;;;;;;21.50;20.10;;;13.30;59.70;;;;;;5074618;28;20889;-78
2022/05/06 07:56:18;;;;;;;21.13;19.53;;;13.20;59.50;;;;;;5073027;28;20179;-78
2022/05/06 07:58:44;;;;;;;20.27;19.07;;;13.20;59.80;;;;;;5073388;28;20417;-78
2022/05/06 08:01:11;;;;;;;20.90;19.50;;;13.30;59.20;;;;;;5073104;28;20448;-79
2022/05/06 08:06:21;;;;;;;19.40;18.10;;;13.40;58.80;;;;;;5062026;28;20414;-79
2022/05/06 08:08:47;;;;;;;19.90;18.80;;;13.40;58.50;;;;;;5071911;28;20417;-79
2022/05/06 08:11:13;;;;;;;21.43;19.60;;;13.40;58.60;;;;;;5073065;28;20290;-79
2022/05/06 08:13:39;;;;;;;22.17;20.60;;;13.50;58.90;;;;;;5072954;28;20237;-79
2022/05/06 08:16:05;;;;;;;20.40;19.20;;;13.50;58.30;;;;;;5072877;28;20179;-79
2022/05/06 08:18:30;;;;;;;22.20;20.90;;;13.50;58.10;;;;;;5072447;28;20471;-79
2022/05/06 08:20:56;;;;;;;21.10;19.90;;;13.50;58.10;;;;;;5072950;28;20421;-79
2022/05/06 08:23:22;;;;;;;21.70;20.40;;;13.60;57.90;;;;;;5072617;28;20195;-79
2022/05/06 08:25:49;;;;;;;22.93;21.57;;;13.60;56.00;;;;;;5072939;28;20534;-79
2022/05/06 08:28:17;;;;;;;22.13;20.70;;;13.60;57.00;;;;;;5073685;28;20475;-78
2022/05/06 08:30:44;;;;;;;21.87;20.67;;;13.60;57.80;;;;;;5072360;28;20422;-78
2022/05/06 08:33:10;;;;;;;21.70;20.40;;;13.60;57.00;;;;;;5072659;28;20439;-78
2022/05/06 08:35:35;;;;;;;22.90;21.50;;;13.60;56.70;;;;;;5072184;28;20448;-78
2022/05/06 08:38:01;;;;;;;22.30;20.50;;;13.70;56.80;;;;;;5066610;28;20175;-78
2022/05/06 08:40:31;;;;;;;24.10;22.17;;;13.70;56.30;;;;;;5072407;28;20198;-79
2022/05/06 08:42:57;;;;;;;22.73;21.43;;;13.60;56.80;;;;;;5072355;28;20179;-79
2022/05/06 08:50:58;;;;;;;21.23;20.03;;;13.90;56.70;;;;;;5073620;28;20424;-79
2022/05/06 08:53:36;;;;;;;22.27;20.07;;;13.80;56.00;;;;;;5072006;28;20508;-79
2022/05/06 08:56:02;;;;;;;22.53;21.20;;;13.90;55.70;;;;;;5062856;28;20458;-79
2022/05/06 08:58:33;;;;;;;22.50;21.10;;;13.90;55.80;;;;;;5064302;28;20405;-79
2022/05/06 09:01:22;;;;;;;22.07;20.77;;;13.90;54.90;;;;;;5057715;28;20462;-84
2022/05/06 09:03:50;;;;;;;22.80;21.50;;;14.00;54.20;;;;;;5054816;28;20541;-80
2022/05/06 09:06:24;;;;;;;22.47;21.20;;;14.00;53.80;;;;;;5072289;28;20421;-80
2022/05/06 09:08:52;;;;;;;23.87;22.47;;;14.00;54.30;;;;;;5067733;28;20487;-80
2022/05/06 09:12:40;;;;;;;25.30;23.80;;;14.00;53.90;;;;;;5052435;28;20434;-80
2022/05/06 09:14:06;;;;;;;23.30;21.57;;;14.00;54.20;;;;;;5053525;28;20423;-80
2022/05/06 09:16:41;;;;;;;22.73;21.47;;;14.00;54.20;;;;;;5065628;28;20418;-80
2022/05/06 09:19:16;;;;;;;22.87;21.67;;;14.10;53.00;;;;;;5072174;28;20783;-78
2022/05/06 09:22:05;;;;;;;22.90;21.50;;;14.10;53.40;;;;;;5072264;28;20421;-81
2022/05/06 09:24:32;;;;;;;22.37;21.27;;;14.10;52.80;;;;;;5072038;28;20468;-80
2022/05/06 09:27:13;;;;;;;22.27;21.03;;;14.10;53.20;;;;;;5072367;28;20410;-81
2022/05/06 09:29:49;;;;;;;23.63;22.13;;;14.00;52.80;;;;;;5072204;28;20417;-80
2022/05/06 09:32:16;;;;;;;23.87;22.30;;;14.10;53.10;;;;;;5071896;28;20497;-80
2022/05/06 09:34:42;;;;;;;23.90;22.30;;;14.20;53.00;;;;;;5071219;28;20410;-80
2022/05/06 09:37:09;;;;;;;25.00;23.70;;;14.20;53.10;;;;;;5071913;28;20459;-80
2022/05/06 09:39:38;;;;;;;27.17;25.67;;;14.20;53.00;;;;;;5070702;28;20418;-80
2022/05/06 09:42:05;;;;;;;25.10;23.50;;;14.30;53.20;;;;;;5071346;28;20424;-80
2022/05/06 09:44:33;;;;;;;23.97;22.57;;;14.30;52.90;;;;;;5070403;28;20461;-80
2022/05/06 09:47:11;;;;;;;25.50;24.07;;;14.40;51.80;;;;;;5071236;28;20443;-80
2022/05/06 09:49:42;;;;;;;24.20;22.90;;;14.50;50.90;;;;;;5070699;28;20425;-80
2022/05/06 09:52:12;;;;;;;24.20;22.80;;;14.60;50.60;;;;;;5071065;28;20416;-80
2022/05/06 09:54:43;;;;;;;24.27;23.10;;;14.60;50.10;;;;;;5070710;28;20781;-80
2022/05/06 09:57:13;;;;;;;26.67;25.13;;;14.60;50.70;;;;;;5071231;28;20909;-80
2022/05/06 09:59:39;;;;;;;24.80;22.77;;;14.80;50.00;;;;;;5070880;28;20422;-80
2022/05/06 10:02:06;;;;;;;23.70;22.40;;;14.90;48.20;;;;;;5070939;28;20425;-80
2022/05/06 10:04:33;;;;;;;23.80;22.30;;;14.90;48.70;;;;;;5067111;28;20465;-80
2022/05/06 10:07:00;;;;;;;24.27;23.07;;;14.80;49.40;;;;;;5060168;28;20407;-80
2022/05/06 10:09:29;;;;;;;24.13;22.70;;;14.90;49.60;;;;;;5062438;28;20509;-80
2022/05/06 10:12:01;;;;;;;23.50;21.93;;;14.90;48.30;;;;;;5072315;28;20404;-81
2022/05/06 10:14:27;;;;;;;23.60;22.30;;;15.00;48.50;;;;;;5070610;28;20423;-80
2022/05/06 10:16:53;;;;;;;24.20;23.00;;;15.00;48.50;;;;;;5070237;28;20409;-80
2022/05/06 10:19:26;;;;;;;25.63;24.33;;;15.20;49.00;;;;;;5070647;28;20440;-80
2022/05/06 10:21:53;;;;;;;25.50;24.30;;;15.20;48.30;;;;;;5070408;28;20209;-80
2022/05/06 10:24:20;;;;;;;24.77;23.37;;;15.30;48.80;;;;;;5070274;28;20457;-80
2022/05/06 10:26:52;;;;;;;24.80;23.50;;;15.40;48.40;;;;;;5071837;28;20761;-81
2022/05/06 10:32:26;;;;;;;24.57;23.20;;;15.60;46.70;;;;;;5063620;28;20417;-80
2022/05/06 10:34:58;;;;;;;26.03;24.20;;;15.70;46.60;;;;;;5058608;28;20833;-81
2022/05/06 10:37:28;;;;;;;26.67;25.23;;;15.80;46.80;;;;;;5068020;28;20859;-80
2022/05/06 10:39:54;;;;;;;26.33;24.87;;;15.90;45.30;;;;;;5070530;28;20875;-81
2022/05/06 10:42:33;;;;;;;26.10;24.40;;;15.90;44.00;;;;;;5066817;28;20801;-81
2022/05/06 10:44:59;;;;;;;25.40;24.10;;;16.10;43.60;;;;;;5070187;28;20206;-81
2022/05/06 10:47:44;;;;;;;24.20;23.07;;;16.20;43.90;;;;;;5074251;28;20496;-81
2022/05/06 10:50:15;;;;;;;24.90;23.70;;;16.30;44.00;;;;;;5074146;28;20171;-81
2022/05/06 10:52:42;;;;;;;25.20;23.70;;;16.40;42.40;;;;;;5074454;28;20418;-81
2022/05/06 10:55:10;;;;;;;25.43;23.87;;;16.30;41.20;;;;;;5073945;28;20459;-84
2022/05/06 10:57:46;;;;;;;24.97;23.57;;;16.40;40.20;;;;;;5063797;28;20414;-84
2022/05/06 11:00:13;;;;;;;24.70;23.30;;;16.50;39.90;;;;;;5056821;28;20422;-84
2022/05/06 11:02:39;;;;;;;25.10;23.90;;;16.50;39.30;;;;;;5074398;28;20460;-84
2022/05/06 11:05:08;;;;;;;24.50;23.40;;;16.50;39.50;;;;;;5073925;28;20472;-84
2022/05/06 11:07:36;;;;;;;25.27;23.77;;;16.70;38.60;;;;;;5074269;28;20908;-84
2022/05/06 11:10:22;;;;;;;24.23;23.03;;;16.80;37.50;;;;;;5069178;28;20423;-84
2022/05/06 11:12:48;;;;;;;23.53;22.23;;;16.80;37.50;;;;;;5074346;28;20433;-85
2022/05/06 11:15:16;;;;;;;25.00;23.30;;;16.90;37.60;;;;;;5074229;28;20425;-83
2022/05/06 11:17:43;;;;;;;24.77;23.57;;;17.00;37.70;;;;;;5073949;28;20187;-83
2022/05/06 11:20:18;;;;;;;24.80;23.50;;;17.10;35.90;;;;;;5074423;28;20420;-84
2022/05/06 11:22:50;;;;;;;24.03;22.70;;;17.20;35.40;;;;;;5073958;28;20425;-82
2022/05/06 11:25:16;;;;;;;23.23;22.23;;;17.20;34.70;;;;;;5073834;28;20465;-83
2022/05/06 11:27:41;;;;;;;23.97;22.83;;;17.20;36.20;;;;;;5073861;28;20420;-84
2022/05/06 11:30:08;;;;;;;24.20;23.10;;;17.20;35.20;;;;;;5074190;28;20167;-83
2022/05/06 11:32:34;;;;;;;23.23;21.80;;;17.20;36.10;;;;;;5073691;28;20609;-83
2022/05/06 11:35:15;;;;;;;22.87;21.77;;;17.20;35.20;;;;;;5073630;28;20428;-84
2022/05/06 11:37:41;;;;;;;22.90;21.80;;;17.30;35.30;;;;;;5073480;28;20456;-85
2022/05/06 11:40:32;;;;;;;23.50;22.37;;;17.30;34.80;;;;;;5073647;28;20914;-84
2022/05/06 11:43:02;;;;;;;24.73;22.90;;;17.50;34.00;;;;;;5073543;28;20917;-83
2022/05/06 11:48:20;;;;;;;24.30;22.90;;;17.60;33.50;;;;;;5074985;28;20825;-84
2022/05/06 11:50:48;;;;;;;24.37;22.97;;;17.70;34.30;;;;;;5073592;28;20409;-82
2022/05/06 11:53:17;;;;;;;24.03;22.93;;;17.70;33.80;;;;;;5073535;28;20414;-84
2022/05/06 11:55:46;;;;;;;25.60;24.10;;;17.70;33.40;;;;;;5072032;28;20766;-83
2022/05/06 11:58:14;;;;;;;22.77;21.47;;;17.70;32.90;;;;;;5073230;28;20240;-84
2022/05/06 12:00:40;;;;;;;25.47;23.97;;;17.60;33.90;;;;;;5073221;28;20448;-84
2022/05/06 12:03:07;;;;;;;25.67;24.07;;;17.60;33.70;;;;;;5073320;28;20421;-84
2022/05/06 12:05:34;;;;;;;25.13;23.90;;;17.60;33.30;;;;;;5072990;28;20571;-84
2022/05/06 12:08:00;;;;;;;24.50;23.23;;;17.60;34.80;;;;;;5072043;28;20502;-84
2022/05/06 12:10:28;;;;;;;24.03;23.03;;;17.60;34.30;;;;;;5062643;28;20969;-83
2022/05/06 12:13:04;;;;;;;24.37;23.17;;;17.50;34.40;;;;;;5073308;28;20175;-84
2022/05/06 12:15:32;;;;;;;23.60;22.50;;;17.50;34.00;;;;;;5070277;28;20939;-83
2022/05/06 12:18:22;;;;;;;23.70;22.70;;;17.50;35.10;;;;;;5067038;28;20432;-84
2022/05/06 12:20:48;;;;;;;23.50;22.13;;;17.60;33.30;;;;;;5046234;28;20438;-84
2022/05/06 12:23:14;;;;;;;23.50;22.30;;;17.60;33.70;;;;;;5064165;28;20930;-84
2022/05/06 12:25:41;;;;;;;25.87;24.60;;;17.70;34.60;;;;;;5052518;28;20207;-83
2022/05/06 12:28:15;;;;;;;23.50;22.50;;;17.70;34.00;;;;;;5052760;28;20407;-83
2022/05/06 12:30:42;;;;;;;24.97;23.57;;;17.60;33.00;;;;;;5058999;28;20782;-84
2022/05/06 12:33:09;;;;;;;24.10;23.00;;;17.60;34.00;;;;;;5072695;28;20508;-83
2022/05/06 12:35:53;;;;;;;23.07;22.00;;;17.70;33.90;;;;;;5072308;28;20418;-83
2022/05/06 12:38:18;;;;;;;22.07;20.97;;;17.80;33.90;;;;;;5072792;28;20421;-83
2022/05/06 12:40:44;;;;;;;24.00;22.90;;;17.90;32.10;;;;;;5072371;28;20414;-84
2022/05/06 12:43:10;;;;;;;23.73;22.53;;;18.00;31.70;;;;;;5072721;28;20175;-85
2022/05/06 12:45:49;;;;;;;23.87;22.67;;;18.00;32.30;;;;;;5071810;28;20562;-84
2022/05/06 12:51:00;;;;;;;25.50;24.20;;;17.90;32.50;;;;;;5072482;28;20460;-84
2022/05/06 12:53:27;;;;;;;24.80;23.60;;;17.90;32.40;;;;;;5058445;28;20183;-85
2022/05/06 12:55:52;;;;;;;24.40;23.40;;;17.80;32.80;;;;;;5065743;28;20425;-85
2022/05/06 12:58:18;;;;;;;21.83;20.83;;;17.80;33.40;;;;;;5070904;28;20452;-85
2022/05/06 13:00:44;;;;;;;23.80;22.60;;;17.80;31.70;;;;;;5051964;28;20520;-86
2022/05/06 13:03:09;;;;;;;23.23;22.13;;;17.80;31.80;;;;;;5056968;28;20201;-85
2022/05/06 13:05:35;;;;;;;23.83;22.53;;;17.80;32.50;;;;;;5072102;28;20210;-86
2022/05/06 13:08:06;;;;;;;24.17;22.93;;;17.90;32.00;;;;;;5071863;28;20588;-80
2022/05/06 13:10:32;;;;;;;24.57;23.07;;;17.90;31.40;;;;;;5071911;28;20897;-86
2022/05/06 13:12:59;;;;;;;23.70;22.60;;;17.90;32.00;;;;;;5072173;28;20416;-86
2022/05/06 13:15:24;;;;;;;24.90;23.53;;;18.00;31.10;;;;;;5072066;28;20205;-85
2022/05/06 13:17:50;;;;;;;26.93;25.27;;;18.00;31.90;;;;;;5072116;28;20774;-84